sensor_id;sensor_type;location;lat;lon;timestamp;P1;durP1;ratioP1;P2;durP2;ratioP2
22851;SDS011;11592;45.460;9.240;2023-07-09T00:02:02;9.32;;;6.35;;
22851;SDS011;11592;45.460;9.240;2023-07-09T00:04:29;16.00;;;6.63;;
22851;SDS011;11592;45.460;9.240;2023-07-09T00:06:57;11.45;;;6.53;;
22851;SDS011;11592;45.460;9.240;2023-07-09T00:09:28;13.15;;;6.85;;
22851;SDS011;11592;45.460;9.240;2023-07-09T00:11:55;14.05;;;6.60;;
22851;SDS011;11592;45.460;9.240;2023-07-09T00:14:22;8.98;;;5.50;;
22851;SDS011;11592;45.460;9.240;2023-07-09T00:16:49;9.90;;;5.25;;
22851;SDS011;11592;45.460;9.240;2023-07-09T00:19:18;11.60;;;5.60;;
22851;SDS011;11592;45.460;9.240;2023-07-09T00:21:50;9.93;;;5.15;;
22851;SDS011;11592;45.460;9.240;2023-07-09T00:24:20;11.73;;;5.55;;
22851;SDS011;11592;45.460;9.240;2023-07-09T00:26:46;14.23;;;5.82;;
22851;SDS011;11592;45.460;9.240;2023-07-09T00:29:15;10.20;;;5.88;;
22851;SDS011;11592;45.460;9.240;2023-07-09T00:31:43;11.48;;;5.68;;
22851;SDS011;11592;45.460;9.240;2023-07-09T00:34:10;9.88;;;5.40;;
22851;SDS011;11592;45.460;9.240;2023-07-09T00:36:40;9.13;;;5.07;;
22851;SDS011;11592;45.460;9.240;2023-07-09T00:39:15;12.60;;;5.63;;
22851;SDS011;11592;45.460;9.240;2023-07-09T00:41:44;10.07;;;5.22;;
22851;SDS011;11592;45.460;9.240;2023-07-09T00:44:26;10.80;;;4.82;;
22851;SDS011;11592;45.460;9.240;2023-07-09T00:49:33;11.73;;;6.40;;
22851;SDS011;11592;45.460;9.240;2023-07-09T00:52:17;9.73;;;5.05;;
22851;SDS011;11592;45.460;9.240;2023-07-09T00:54:51;11.98;;;5.65;;
22851;SDS011;11592;45.460;9.240;2023-07-09T00:57:22;10.32;;;5.03;;
22851;SDS011;11592;45.460;9.240;2023-07-09T00:59:53;8.95;;;4.78;;
22851;SDS011;11592;45.460;9.240;2023-07-09T01:02:25;8.57;;;4.88;;
22851;SDS011;11592;45.460;9.240;2023-07-09T01:04:54;8.48;;;4.72;;
22851;SDS011;11592;45.460;9.240;2023-07-09T01:07:30;8.57;;;4.97;;
22851;SDS011;11592;45.460;9.240;2023-07-09T01:09:57;12.50;;;4.90;;
22851;SDS011;11592;45.460;9.240;2023-07-09T01:12:24;10.45;;;4.97;;
22851;SDS011;11592;45.460;9.240;2023-07-09T01:14:53;13.98;;;5.30;;
22851;SDS011;11592;45.460;9.240;2023-07-09T01:17:26;9.60;;;4.97;;
22851;SDS011;11592;45.460;9.240;2023-07-09T01:19:55;8.13;;;5.22;;
22851;SDS011;11592;45.460;9.240;2023-07-09T01:22:23;10.20;;;5.47;;
22851;SDS011;11592;45.460;9.240;2023-07-09T01:24:54;9.85;;;5.40;;
22851;SDS011;11592;45.460;9.240;2023-07-09T01:30:02;9.10;;;5.47;;
22851;SDS011;11592;45.460;9.240;2023-07-09T01:32:32;8.98;;;4.80;;
22851;SDS011;11592;45.460;9.240;2023-07-09T01:35:01;9.38;;;5.43;;
22851;SDS011;11592;45.460;9.240;2023-07-09T01:37:34;10.00;;;5.85;;
22851;SDS011;11592;45.460;9.240;2023-07-09T01:40:04;10.82;;;5.13;;
22851;SDS011;11592;45.460;9.240;2023-07-09T01:42:52;9.98;;;6.82;;
22851;SDS011;11592;45.460;9.240;2023-07-09T01:45:21;6.63;;;4.80;;
22851;SDS011;11592;45.460;9.240;2023-07-09T01:47:48;9.45;;;4.85;;
22851;SDS011;11592;45.460;9.240;2023-07-09T01:50:15;11.13;;;5.47;;
22851;SDS011;11592;45.460;9.240;2023-07-09T01:52:46;11.80;;;4.95;;
22851;SDS011;11592;45.460;9.240;2023-07-09T01:55:16;11.52;;;5.78;;
22851;SDS011;11592;45.460;9.240;2023-07-09T01:57:43;10.02;;;4.88;;
22851;SDS011;11592;45.460;9.240;2023-07-09T02:00:13;7.93;;;4.90;;
22851;SDS011;11592;45.460;9.240;2023-07-09T02:02:41;9.77;;;5.55;;
22851;SDS011;11592;45.460;9.240;2023-07-09T02:05:10;8.40;;;5.50;;
22851;SDS011;11592;45.460;9.240;2023-07-09T02:07:40;7.15;;;4.75;;
22851;SDS011;11592;45.460;9.240;2023-07-09T02:10:07;13.60;;;5.35;;
22851;SDS011;11592;45.460;9.240;2023-07-09T02:12:35;7.55;;;4.82;;
22851;SDS011;11592;45.460;9.240;2023-07-09T02:15:02;10.38;;;5.57;;
22851;SDS011;11592;45.460;9.240;2023-07-09T02:17:29;10.02;;;5.40;;
22851;SDS011;11592;45.460;9.240;2023-07-09T02:19:55;8.52;;;5.50;;
22851;SDS011;11592;45.460;9.240;2023-07-09T02:22:22;10.10;;;5.03;;
22851;SDS011;11592;45.460;9.240;2023-07-09T02:24:49;12.05;;;5.65;;
22851;SDS011;11592;45.460;9.240;2023-07-09T02:27:19;8.18;;;5.15;;
22851;SDS011;11592;45.460;9.240;2023-07-09T02:29:47;8.65;;;4.95;;
22851;SDS011;11592;45.460;9.240;2023-07-09T02:32:18;15.40;;;5.63;;
22851;SDS011;11592;45.460;9.240;2023-07-09T02:34:47;8.93;;;5.07;;
22851;SDS011;11592;45.460;9.240;2023-07-09T02:37:16;9.15;;;5.50;;
22851;SDS011;11592;45.460;9.240;2023-07-09T02:39:46;8.20;;;5.35;;
22851;SDS011;11592;45.460;9.240;2023-07-09T02:42:14;8.52;;;4.80;;
22851;SDS011;11592;45.460;9.240;2023-07-09T02:44:42;9.80;;;5.00;;
22851;SDS011;11592;45.460;9.240;2023-07-09T02:47:10;9.65;;;5.75;;
22851;SDS011;11592;45.460;9.240;2023-07-09T02:49:37;10.98;;;5.65;;
22851;SDS011;11592;45.460;9.240;2023-07-09T02:52:05;9.25;;;5.53;;
22851;SDS011;11592;45.460;9.240;2023-07-09T02:54:32;12.27;;;5.47;;
22851;SDS011;11592;45.460;9.240;2023-07-09T02:56:59;10.95;;;5.35;;
22851;SDS011;11592;45.460;9.240;2023-07-09T02:59:26;10.00;;;5.03;;
22851;SDS011;11592;45.460;9.240;2023-07-09T03:01:55;8.50;;;5.03;;
22851;SDS011;11592;45.460;9.240;2023-07-09T03:04:23;9.32;;;5.85;;
22851;SDS011;11592;45.460;9.240;2023-07-09T03:06:50;8.48;;;5.53;;
22851;SDS011;11592;45.460;9.240;2023-07-09T03:09:17;9.95;;;5.95;;
22851;SDS011;11592;45.460;9.240;2023-07-09T03:11:44;11.60;;;5.70;;
22851;SDS011;11592;45.460;9.240;2023-07-09T03:14:11;10.18;;;5.63;;
22851;SDS011;11592;45.460;9.240;2023-07-09T03:16:38;9.80;;;5.70;;
22851;SDS011;11592;45.460;9.240;2023-07-09T03:19:06;9.57;;;6.15;;
22851;SDS011;11592;45.460;9.240;2023-07-09T03:21:33;9.15;;;5.90;;
22851;SDS011;11592;45.460;9.240;2023-07-09T03:23:59;10.60;;;5.85;;
22851;SDS011;11592;45.460;9.240;2023-07-09T03:26:26;10.18;;;5.95;;
22851;SDS011;11592;45.460;9.240;2023-07-09T03:28:53;9.60;;;5.80;;
22851;SDS011;11592;45.460;9.240;2023-07-09T03:31:21;11.10;;;6.32;;
22851;SDS011;11592;45.460;9.240;2023-07-09T03:33:48;11.98;;;5.97;;
22851;SDS011;11592;45.460;9.240;2023-07-09T03:36:16;12.65;;;6.43;;
22851;SDS011;11592;45.460;9.240;2023-07-09T03:38:45;9.05;;;5.93;;
22851;SDS011;11592;45.460;9.240;2023-07-09T03:41:12;12.20;;;6.13;;
22851;SDS011;11592;45.460;9.240;2023-07-09T03:43:39;10.52;;;6.10;;
22851;SDS011;11592;45.460;9.240;2023-07-09T03:46:05;14.52;;;7.32;;
22851;SDS011;11592;45.460;9.240;2023-07-09T03:48:32;10.07;;;6.55;;
22851;SDS011;11592;45.460;9.240;2023-07-09T03:50:59;9.30;;;6.18;;
22851;SDS011;11592;45.460;9.240;2023-07-09T03:53:26;8.48;;;5.88;;
22851;SDS011;11592;45.460;9.240;2023-07-09T03:55:53;10.57;;;6.07;;
22851;SDS011;11592;45.460;9.240;2023-07-09T03:58:22;8.70;;;5.80;;
22851;SDS011;11592;45.460;9.240;2023-07-09T04:00:50;11.02;;;6.78;;
22851;SDS011;11592;45.460;9.240;2023-07-09T04:03:17;10.13;;;5.78;;
22851;SDS011;11592;45.460;9.240;2023-07-09T04:05:44;9.00;;;5.85;;
22851;SDS011;11592;45.460;9.240;2023-07-09T04:08:11;11.63;;;5.45;;
22851;SDS011;11592;45.460;9.240;2023-07-09T04:10:37;8.18;;;5.70;;
22851;SDS011;11592;45.460;9.240;2023-07-09T04:13:04;9.00;;;5.57;;
22851;SDS011;11592;45.460;9.240;2023-07-09T04:15:31;9.57;;;5.85;;
22851;SDS011;11592;45.460;9.240;2023-07-09T04:17:58;11.48;;;5.65;;
22851;SDS011;11592;45.460;9.240;2023-07-09T04:20:26;12.50;;;5.70;;
22851;SDS011;11592;45.460;9.240;2023-07-09T04:22:54;10.27;;;6.00;;
22851;SDS011;11592;45.460;9.240;2023-07-09T04:25:21;12.02;;;6.72;;
22851;SDS011;11592;45.460;9.240;2023-07-09T04:27:48;14.30;;;6.15;;
22851;SDS011;11592;45.460;9.240;2023-07-09T04:30:16;11.75;;;6.28;;
22851;SDS011;11592;45.460;9.240;2023-07-09T04:32:44;7.88;;;5.90;;
22851;SDS011;11592;45.460;9.240;2023-07-09T04:35:12;8.10;;;5.60;;
22851;SDS011;11592;45.460;9.240;2023-07-09T04:37:40;9.27;;;5.60;;
22851;SDS011;11592;45.460;9.240;2023-07-09T04:40:07;10.30;;;5.82;;
22851;SDS011;11592;45.460;9.240;2023-07-09T04:42:37;9.43;;;6.22;;
22851;SDS011;11592;45.460;9.240;2023-07-09T04:45:06;10.20;;;6.20;;
22851;SDS011;11592;45.460;9.240;2023-07-09T04:47:35;11.15;;;5.95;;
22851;SDS011;11592;45.460;9.240;2023-07-09T04:50:03;11.25;;;6.15;;
22851;SDS011;11592;45.460;9.240;2023-07-09T04:52:34;10.82;;;6.28;;
22851;SDS011;11592;45.460;9.240;2023-07-09T04:55:01;11.57;;;6.00;;
22851;SDS011;11592;45.460;9.240;2023-07-09T04:57:28;10.45;;;6.28;;
22851;SDS011;11592;45.460;9.240;2023-07-09T04:59:55;10.82;;;6.13;;
22851;SDS011;11592;45.460;9.240;2023-07-09T05:02:22;13.40;;;6.10;;
22851;SDS011;11592;45.460;9.240;2023-07-09T05:04:49;10.32;;;6.43;;
22851;SDS011;11592;45.460;9.240;2023-07-09T05:07:16;11.73;;;5.68;;
22851;SDS011;11592;45.460;9.240;2023-07-09T05:09:43;9.43;;;5.55;;
22851;SDS011;11592;45.460;9.240;2023-07-09T05:12:10;12.52;;;5.90;;
22851;SDS011;11592;45.460;9.240;2023-07-09T05:14:37;9.57;;;5.43;;
22851;SDS011;11592;45.460;9.240;2023-07-09T05:17:04;10.73;;;5.88;;
22851;SDS011;11592;45.460;9.240;2023-07-09T05:19:31;12.38;;;6.18;;
22851;SDS011;11592;45.460;9.240;2023-07-09T05:21:59;12.43;;;5.30;;
22851;SDS011;11592;45.460;9.240;2023-07-09T05:24:26;11.20;;;5.82;;
22851;SDS011;11592;45.460;9.240;2023-07-09T05:26:54;10.02;;;5.68;;
22851;SDS011;11592;45.460;9.240;2023-07-09T05:29:22;10.63;;;5.80;;
22851;SDS011;11592;45.460;9.240;2023-07-09T05:31:49;12.73;;;5.85;;
22851;SDS011;11592;45.460;9.240;2023-07-09T05:34:16;10.88;;;5.43;;
22851;SDS011;11592;45.460;9.240;2023-07-09T05:36:43;10.07;;;6.07;;
22851;SDS011;11592;45.460;9.240;2023-07-09T05:39:11;10.00;;;6.00;;
22851;SDS011;11592;45.460;9.240;2023-07-09T05:41:38;10.45;;;5.25;;
22851;SDS011;11592;45.460;9.240;2023-07-09T05:44:05;9.93;;;5.85;;
22851;SDS011;11592;45.460;9.240;2023-07-09T05:46:35;9.77;;;5.65;;
22851;SDS011;11592;45.460;9.240;2023-07-09T05:49:03;10.95;;;6.10;;
22851;SDS011;11592;45.460;9.240;2023-07-09T05:51:32;10.07;;;5.57;;
22851;SDS011;11592;45.460;9.240;2023-07-09T05:53:58;11.25;;;5.47;;
22851;SDS011;11592;45.460;9.240;2023-07-09T05:56:26;11.00;;;5.88;;
22851;SDS011;11592;45.460;9.240;2023-07-09T05:58:52;11.75;;;6.18;;
22851;SDS011;11592;45.460;9.240;2023-07-09T06:01:19;9.95;;;5.72;;
22851;SDS011;11592;45.460;9.240;2023-07-09T06:03:47;9.77;;;5.97;;
22851;SDS011;11592;45.460;9.240;2023-07-09T06:06:14;9.55;;;5.05;;
22851;SDS011;11592;45.460;9.240;2023-07-09T06:08:41;9.02;;;5.82;;
22851;SDS011;11592;45.460;9.240;2023-07-09T06:11:08;12.80;;;6.30;;
22851;SDS011;11592;45.460;9.240;2023-07-09T06:13:35;8.23;;;4.90;;
22851;SDS011;11592;45.460;9.240;2023-07-09T06:16:02;8.25;;;5.05;;
22851;SDS011;11592;45.460;9.240;2023-07-09T06:18:29;8.32;;;5.25;;
22851;SDS011;11592;45.460;9.240;2023-07-09T06:21:00;13.32;;;5.22;;
22851;SDS011;11592;45.460;9.240;2023-07-09T06:23:29;7.43;;;5.05;;
22851;SDS011;11592;45.460;9.240;2023-07-09T06:25:57;12.57;;;5.70;;
22851;SDS011;11592;45.460;9.240;2023-07-09T06:28:25;12.02;;;5.60;;
22851;SDS011;11592;45.460;9.240;2023-07-09T06:30:55;12.15;;;6.18;;
22851;SDS011;11592;45.460;9.240;2023-07-09T06:33:23;12.52;;;5.20;;
22851;SDS011;11592;45.460;9.240;2023-07-09T06:35:58;10.15;;;5.15;;
22851;SDS011;11592;45.460;9.240;2023-07-09T06:38:27;8.00;;;5.25;;
22851;SDS011;11592;45.460;9.240;2023-07-09T06:40:55;9.70;;;4.97;;
22851;SDS011;11592;45.460;9.240;2023-07-09T06:43:23;8.77;;;5.03;;
22851;SDS011;11592;45.460;9.240;2023-07-09T06:45:51;9.52;;;5.75;;
22851;SDS011;11592;45.460;9.240;2023-07-09T06:48:20;9.43;;;5.47;;
22851;SDS011;11592;45.460;9.240;2023-07-09T06:50:47;10.65;;;5.22;;
22851;SDS011;11592;45.460;9.240;2023-07-09T06:53:14;10.07;;;5.28;;
22851;SDS011;11592;45.460;9.240;2023-07-09T06:55:42;8.57;;;5.53;;
22851;SDS011;11592;45.460;9.240;2023-07-09T06:58:09;10.57;;;5.70;;
22851;SDS011;11592;45.460;9.240;2023-07-09T07:00:36;10.68;;;5.53;;
22851;SDS011;11592;45.460;9.240;2023-07-09T07:03:04;11.60;;;6.28;;
22851;SDS011;11592;45.460;9.240;2023-07-09T07:05:31;12.13;;;6.20;;
22851;SDS011;11592;45.460;9.240;2023-07-09T07:07:59;10.20;;;5.53;;
22851;SDS011;11592;45.460;9.240;2023-07-09T07:10:26;9.25;;;5.53;;
22851;SDS011;11592;45.460;9.240;2023-07-09T07:12:53;10.90;;;5.80;;
22851;SDS011;11592;45.460;9.240;2023-07-09T07:15:21;9.60;;;5.63;;
22851;SDS011;11592;45.460;9.240;2023-07-09T07:17:48;9.27;;;5.00;;
22851;SDS011;11592;45.460;9.240;2023-07-09T07:20:15;8.93;;;5.28;;
22851;SDS011;11592;45.460;9.240;2023-07-09T07:22:43;7.45;;;4.72;;
22851;SDS011;11592;45.460;9.240;2023-07-09T07:25:10;10.18;;;5.60;;
22851;SDS011;11592;45.460;9.240;2023-07-09T07:27:37;8.98;;;5.60;;
22851;SDS011;11592;45.460;9.240;2023-07-09T07:30:05;9.27;;;5.50;;
22851;SDS011;11592;45.460;9.240;2023-07-09T07:32:39;10.60;;;5.40;;
22851;SDS011;11592;45.460;9.240;2023-07-09T07:35:10;9.43;;;5.90;;
22851;SDS011;11592;45.460;9.240;2023-07-09T07:37:37;10.93;;;5.72;;
22851;SDS011;11592;45.460;9.240;2023-07-09T07:40:04;14.95;;;6.43;;
22851;SDS011;11592;45.460;9.240;2023-07-09T07:42:32;9.38;;;6.15;;
22851;SDS011;11592;45.460;9.240;2023-07-09T07:44:59;12.20;;;6.70;;
22851;SDS011;11592;45.460;9.240;2023-07-09T07:47:26;8.20;;;5.22;;
22851;SDS011;11592;45.460;9.240;2023-07-09T07:49:53;9.63;;;5.88;;
22851;SDS011;11592;45.460;9.240;2023-07-09T07:52:20;12.98;;;6.32;;
22851;SDS011;11592;45.460;9.240;2023-07-09T07:54:47;12.60;;;6.40;;
22851;SDS011;11592;45.460;9.240;2023-07-09T07:57:14;12.93;;;5.90;;
22851;SDS011;11592;45.460;9.240;2023-07-09T07:59:41;14.00;;;6.10;;
22851;SDS011;11592;45.460;9.240;2023-07-09T08:02:11;11.98;;;6.20;;
22851;SDS011;11592;45.460;9.240;2023-07-09T08:04:39;10.63;;;5.43;;
22851;SDS011;11592;45.460;9.240;2023-07-09T08:07:07;13.25;;;5.78;;
22851;SDS011;11592;45.460;9.240;2023-07-09T08:09:35;9.68;;;5.90;;
22851;SDS011;11592;45.460;9.240;2023-07-09T08:12:03;13.43;;;6.07;;
22851;SDS011;11592;45.460;9.240;2023-07-09T08:14:41;13.70;;;6.25;;
22851;SDS011;11592;45.460;9.240;2023-07-09T08:17:09;11.65;;;5.28;;
22851;SDS011;11592;45.460;9.240;2023-07-09T08:19:46;10.40;;;6.05;;
22851;SDS011;11592;45.460;9.240;2023-07-09T08:22:18;10.57;;;5.80;;
22851;SDS011;11592;45.460;9.240;2023-07-09T08:24:47;9.77;;;5.75;;
22851;SDS011;11592;45.460;9.240;2023-07-09T08:27:14;11.18;;;6.03;;
22851;SDS011;11592;45.460;9.240;2023-07-09T08:29:41;9.13;;;5.57;;
22851;SDS011;11592;45.460;9.240;2023-07-09T08:32:09;10.18;;;6.00;;
22851;SDS011;11592;45.460;9.240;2023-07-09T08:34:37;10.70;;;5.45;;
22851;SDS011;11592;45.460;9.240;2023-07-09T08:37:25;9.57;;;5.68;;
22851;SDS011;11592;45.460;9.240;2023-07-09T08:39:52;8.48;;;5.68;;
22851;SDS011;11592;45.460;9.240;2023-07-09T08:42:26;14.30;;;7.07;;
22851;SDS011;11592;45.460;9.240;2023-07-09T08:48:02;11.90;;;6.43;;
22851;SDS011;11592;45.460;9.240;2023-07-09T08:50:34;10.90;;;7.10;;
22851;SDS011;11592;45.460;9.240;2023-07-09T08:53:09;10.90;;;6.65;;
22851;SDS011;11592;45.460;9.240;2023-07-09T08:55:46;11.27;;;6.10;;
22851;SDS011;11592;45.460;9.240;2023-07-09T08:58:21;11.23;;;5.75;;
22851;SDS011;11592;45.460;9.240;2023-07-09T09:00:56;9.50;;;5.97;;
22851;SDS011;11592;45.460;9.240;2023-07-09T09:06:17;10.13;;;6.35;;
22851;SDS011;11592;45.460;9.240;2023-07-09T09:11:44;14.73;;;7.00;;
22851;SDS011;11592;45.460;9.240;2023-07-09T09:14:31;11.05;;;6.85;;
22851;SDS011;11592;45.460;9.240;2023-07-09T09:17:07;13.48;;;7.25;;
22851;SDS011;11592;45.460;9.240;2023-07-09T09:19:56;12.77;;;7.95;;
22851;SDS011;11592;45.460;9.240;2023-07-09T09:22:33;13.75;;;8.63;;
22851;SDS011;11592;45.460;9.240;2023-07-09T09:27:43;13.20;;;7.45;;
22851;SDS011;11592;45.460;9.240;2023-07-09T09:30:17;11.68;;;8.30;;
22851;SDS011;11592;45.460;9.240;2023-07-09T09:32:47;12.00;;;7.25;;
22851;SDS011;11592;45.460;9.240;2023-07-09T09:35:26;14.30;;;8.15;;
22851;SDS011;11592;45.460;9.240;2023-07-09T09:37:55;16.33;;;10.27;;
22851;SDS011;11592;45.460;9.240;2023-07-09T09:40:25;15.32;;;9.05;;
22851;SDS011;11592;45.460;9.240;2023-07-09T09:42:55;13.75;;;9.18;;
22851;SDS011;11592;45.460;9.240;2023-07-09T09:45:28;12.63;;;8.82;;
22851;SDS011;11592;45.460;9.240;2023-07-09T09:48:01;12.93;;;8.10;;
22851;SDS011;11592;45.460;9.240;2023-07-09T09:50:51;16.15;;;10.07;;
22851;SDS011;11592;45.460;9.240;2023-07-09T09:53:19;9.95;;;7.38;;
22851;SDS011;11592;45.460;9.240;2023-07-09T09:55:53;11.05;;;7.10;;
22851;SDS011;11592;45.460;9.240;2023-07-09T09:58:28;9.90;;;6.82;;
22851;SDS011;11592;45.460;9.240;2023-07-09T10:00:56;22.30;;;11.43;;
22851;SDS011;11592;45.460;9.240;2023-07-09T10:03:37;15.88;;;10.15;;
22851;SDS011;11592;45.460;9.240;2023-07-09T10:06:50;25.42;;;12.10;;
22851;SDS011;11592;45.460;9.240;2023-07-09T10:17:23;17.80;;;10.30;;
22851;SDS011;11592;45.460;9.240;2023-07-09T10:20:00;14.63;;;9.80;;
22851;SDS011;11592;45.460;9.240;2023-07-09T10:22:38;16.67;;;9.38;;
22851;SDS011;11592;45.460;9.240;2023-07-09T10:28:12;12.57;;;8.50;;
22851;SDS011;11592;45.460;9.240;2023-07-09T10:41:50;11.68;;;7.55;;
22851;SDS011;11592;45.460;9.240;2023-07-09T10:44:22;9.77;;;6.78;;
22851;SDS011;11592;45.460;9.240;2023-07-09T10:46:58;11.32;;;7.15;;
22851;SDS011;11592;45.460;9.240;2023-07-09T10:49:34;11.15;;;7.90;;
22851;SDS011;11592;45.460;9.240;2023-07-09T10:52:06;13.13;;;8.20;;
22851;SDS011;11592;45.460;9.240;2023-07-09T11:00:46;13.82;;;7.72;;
22851;SDS011;11592;45.460;9.240;2023-07-09T11:03:18;9.30;;;6.95;;
22851;SDS011;11592;45.460;9.240;2023-07-09T11:05:48;12.43;;;7.57;;
22851;SDS011;11592;45.460;9.240;2023-07-09T11:08:50;9.70;;;7.32;;
22851;SDS011;11592;45.460;9.240;2023-07-09T11:11:15;12.57;;;6.57;;
22851;SDS011;11592;45.460;9.240;2023-07-09T11:13:54;11.32;;;6.75;;
22851;SDS011;11592;45.460;9.240;2023-07-09T11:16:31;10.38;;;7.88;;
22851;SDS011;11592;45.460;9.240;2023-07-09T11:19:03;9.02;;;6.55;;
22851;SDS011;11592;45.460;9.240;2023-07-09T11:21:32;13.20;;;7.10;;
22851;SDS011;11592;45.460;9.240;2023-07-09T11:24:02;8.43;;;6.00;;
22851;SDS011;11592;45.460;9.240;2023-07-09T11:26:30;13.15;;;7.15;;
22851;SDS011;11592;45.460;9.240;2023-07-09T11:31:34;9.13;;;6.10;;
22851;SDS011;11592;45.460;9.240;2023-07-09T11:39:23;12.93;;;7.57;;
22851;SDS011;11592;45.460;9.240;2023-07-09T11:41:58;9.07;;;7.20;;
22851;SDS011;11592;45.460;9.240;2023-07-09T11:44:26;12.40;;;6.82;;
22851;SDS011;11592;45.460;9.240;2023-07-09T11:46:58;11.65;;;6.22;;
22851;SDS011;11592;45.460;9.240;2023-07-09T11:49:45;11.35;;;6.80;;
22851;SDS011;11592;45.460;9.240;2023-07-09T11:52:17;11.48;;;6.57;;
22851;SDS011;11592;45.460;9.240;2023-07-09T11:54:52;11.80;;;6.65;;
22851;SDS011;11592;45.460;9.240;2023-07-09T11:57:20;9.90;;;6.43;;
22851;SDS011;11592;45.460;9.240;2023-07-09T11:59:47;9.50;;;7.05;;
22851;SDS011;11592;45.460;9.240;2023-07-09T12:02:20;8.68;;;5.70;;
22851;SDS011;11592;45.460;9.240;2023-07-09T12:04:48;9.93;;;6.80;;
22851;SDS011;11592;45.460;9.240;2023-07-09T12:07:17;8.73;;;5.75;;
22851;SDS011;11592;45.460;9.240;2023-07-09T12:09:48;10.57;;;6.05;;
22851;SDS011;11592;45.460;9.240;2023-07-09T12:12:20;8.48;;;5.93;;
22851;SDS011;11592;45.460;9.240;2023-07-09T12:14:51;10.77;;;6.53;;
22851;SDS011;11592;45.460;9.240;2023-07-09T12:17:18;15.60;;;7.35;;
22851;SDS011;11592;45.460;9.240;2023-07-09T12:19:45;10.63;;;6.75;;
22851;SDS011;11592;45.460;9.240;2023-07-09T12:22:15;10.32;;;6.57;;
22851;SDS011;11592;45.460;9.240;2023-07-09T12:24:48;9.70;;;6.45;;
22851;SDS011;11592;45.460;9.240;2023-07-09T12:27:26;11.15;;;6.07;;
22851;SDS011;11592;45.460;9.240;2023-07-09T12:30:03;13.77;;;6.88;;
22851;SDS011;11592;45.460;9.240;2023-07-09T12:32:42;13.85;;;6.15;;
22851;SDS011;11592;45.460;9.240;2023-07-09T12:35:13;10.35;;;5.95;;
22851;SDS011;11592;45.460;9.240;2023-07-09T12:37:42;7.80;;;6.13;;
22851;SDS011;11592;45.460;9.240;2023-07-09T12:40:16;11.82;;;6.05;;
22851;SDS011;11592;45.460;9.240;2023-07-09T12:42:47;11.65;;;5.32;;
22851;SDS011;11592;45.460;9.240;2023-07-09T12:45:15;7.22;;;5.60;;
22851;SDS011;11592;45.460;9.240;2023-07-09T12:47:45;6.50;;;5.43;;
22851;SDS011;11592;45.460;9.240;2023-07-09T12:50:32;10.95;;;6.18;;
22851;SDS011;11592;45.460;9.240;2023-07-09T12:53:14;8.55;;;5.47;;
22851;SDS011;11592;45.460;9.240;2023-07-09T12:55:47;8.60;;;5.85;;
22851;SDS011;11592;45.460;9.240;2023-07-09T12:58:18;8.10;;;5.30;;
22851;SDS011;11592;45.460;9.240;2023-07-09T13:00:51;8.40;;;5.47;;
22851;SDS011;11592;45.460;9.240;2023-07-09T13:03:20;9.88;;;6.22;;
22851;SDS011;11592;45.460;9.240;2023-07-09T13:05:56;11.07;;;5.47;;
22851;SDS011;11592;45.460;9.240;2023-07-09T13:08:26;10.68;;;4.93;;
22851;SDS011;11592;45.460;9.240;2023-07-09T13:10:54;13.20;;;6.18;;
22851;SDS011;11592;45.460;9.240;2023-07-09T13:13:23;7.35;;;5.57;;
22851;SDS011;11592;45.460;9.240;2023-07-09T13:15:57;7.82;;;5.35;;
22851;SDS011;11592;45.460;9.240;2023-07-09T13:18:27;8.23;;;5.40;;
22851;SDS011;11592;45.460;9.240;2023-07-09T13:20:55;10.40;;;5.55;;
22851;SDS011;11592;45.460;9.240;2023-07-09T13:23:26;10.02;;;5.75;;
22851;SDS011;11592;45.460;9.240;2023-07-09T13:25:54;9.18;;;5.18;;
22851;SDS011;11592;45.460;9.240;2023-07-09T13:28:24;8.13;;;5.47;;
22851;SDS011;11592;45.460;9.240;2023-07-09T13:30:57;8.52;;;5.32;;
22851;SDS011;11592;45.460;9.240;2023-07-09T13:33:43;6.47;;;5.18;;
22851;SDS011;11592;45.460;9.240;2023-07-09T13:36:13;10.32;;;5.43;;
22851;SDS011;11592;45.460;9.240;2023-07-09T13:38:40;10.10;;;5.57;;
22851;SDS011;11592;45.460;9.240;2023-07-09T13:41:14;7.75;;;5.25;;
22851;SDS011;11592;45.460;9.240;2023-07-09T13:43:44;8.23;;;5.22;;
22851;SDS011;11592;45.460;9.240;2023-07-09T13:46:13;8.38;;;4.57;;
22851;SDS011;11592;45.460;9.240;2023-07-09T13:48:41;8.20;;;4.78;;
22851;SDS011;11592;45.460;9.240;2023-07-09T13:51:15;7.13;;;4.45;;
22851;SDS011;11592;45.460;9.240;2023-07-09T13:53:51;11.43;;;5.28;;
22851;SDS011;11592;45.460;9.240;2023-07-09T13:56:20;7.63;;;4.47;;
22851;SDS011;11592;45.460;9.240;2023-07-09T13:58:47;6.68;;;4.72;;
22851;SDS011;11592;45.460;9.240;2023-07-09T14:01:18;7.32;;;5.20;;
22851;SDS011;11592;45.460;9.240;2023-07-09T14:03:49;7.38;;;4.65;;
22851;SDS011;11592;45.460;9.240;2023-07-09T14:06:17;8.52;;;5.00;;
22851;SDS011;11592;45.460;9.240;2023-07-09T14:08:44;7.65;;;4.75;;
22851;SDS011;11592;45.460;9.240;2023-07-09T14:11:14;8.73;;;4.82;;
22851;SDS011;11592;45.460;9.240;2023-07-09T14:13:43;7.30;;;5.30;;
22851;SDS011;11592;45.460;9.240;2023-07-09T14:16:10;10.02;;;5.38;;
22851;SDS011;11592;45.460;9.240;2023-07-09T14:18:38;8.77;;;5.13;;
22851;SDS011;11592;45.460;9.240;2023-07-09T14:21:12;8.02;;;4.80;;
22851;SDS011;11592;45.460;9.240;2023-07-09T14:24:00;9.27;;;5.03;;
22851;SDS011;11592;45.460;9.240;2023-07-09T14:26:27;8.95;;;5.05;;
22851;SDS011;11592;45.460;9.240;2023-07-09T14:28:54;9.05;;;4.70;;
22851;SDS011;11592;45.460;9.240;2023-07-09T14:31:23;9.43;;;5.05;;
22851;SDS011;11592;45.460;9.240;2023-07-09T14:33:53;7.72;;;5.18;;
22851;SDS011;11592;45.460;9.240;2023-07-09T14:36:21;9.82;;;5.53;;
22851;SDS011;11592;45.460;9.240;2023-07-09T14:38:48;9.45;;;4.93;;
22851;SDS011;11592;45.460;9.240;2023-07-09T14:41:19;6.43;;;4.82;;
22851;SDS011;11592;45.460;9.240;2023-07-09T14:43:48;6.85;;;4.47;;
22851;SDS011;11592;45.460;9.240;2023-07-09T14:46:15;7.78;;;5.07;;
22851;SDS011;11592;45.460;9.240;2023-07-09T14:48:42;7.07;;;5.10;;
22851;SDS011;11592;45.460;9.240;2023-07-09T14:51:13;8.10;;;4.90;;
22851;SDS011;11592;45.460;9.240;2023-07-09T14:53:42;7.57;;;4.70;;
22851;SDS011;11592;45.460;9.240;2023-07-09T14:56:11;7.88;;;5.18;;
22851;SDS011;11592;45.460;9.240;2023-07-09T14:58:39;9.02;;;5.22;;
22851;SDS011;11592;45.460;9.240;2023-07-09T15:01:10;7.95;;;5.07;;
22851;SDS011;11592;45.460;9.240;2023-07-09T15:03:41;8.80;;;4.70;;
22851;SDS011;11592;45.460;9.240;2023-07-09T15:06:08;9.77;;;5.43;;
22851;SDS011;11592;45.460;9.240;2023-07-09T15:08:35;7.40;;;5.50;;
22851;SDS011;11592;45.460;9.240;2023-07-09T15:11:03;11.98;;;6.35;;
22851;SDS011;11592;45.460;9.240;2023-07-09T15:13:34;8.07;;;5.50;;
22851;SDS011;11592;45.460;9.240;2023-07-09T15:16:03;8.77;;;5.25;;
22851;SDS011;11592;45.460;9.240;2023-07-09T15:18:31;11.80;;;5.40;;
22851;SDS011;11592;45.460;9.240;2023-07-09T15:21:02;9.63;;;5.40;;
22851;SDS011;11592;45.460;9.240;2023-07-09T15:23:31;7.43;;;5.20;;
22851;SDS011;11592;45.460;9.240;2023-07-09T15:26:04;10.13;;;5.28;;
22851;SDS011;11592;45.460;9.240;2023-07-09T15:28:38;10.52;;;4.75;;
22851;SDS011;11592;45.460;9.240;2023-07-09T15:31:07;7.30;;;4.97;;
22851;SDS011;11592;45.460;9.240;2023-07-09T15:33:37;10.98;;;5.25;;
22851;SDS011;11592;45.460;9.240;2023-07-09T15:36:08;10.93;;;5.10;;
22851;SDS011;11592;45.460;9.240;2023-07-09T15:38:38;10.82;;;4.50;;
22851;SDS011;11592;45.460;9.240;2023-07-09T15:41:10;7.25;;;5.00;;
22851;SDS011;11592;45.460;9.240;2023-07-09T15:43:41;8.93;;;4.97;;
22851;SDS011;11592;45.460;9.240;2023-07-09T15:46:15;6.63;;;5.05;;
22851;SDS011;11592;45.460;9.240;2023-07-09T15:48:44;8.57;;;5.07;;
22851;SDS011;11592;45.460;9.240;2023-07-09T15:51:12;10.93;;;4.68;;